createdAt,value
2018-09-01T00:00:55.488Z,0.00
2018-09-01T00:01:55.480Z,0.00
2018-09-01T00:02:55.495Z,0.00
2018-09-01T00:03:55.451Z,0.00
2018-09-01T00:04:55.440Z,0.00
2018-09-01T00:05:55.431Z,0.00
2018-09-01T00:06:55.419Z,0.00
2018-09-01T00:07:55.409Z,0.00
2018-09-01T00:08:55.414Z,0.00
2018-09-01T00:09:55.387Z,0.00
2018-09-01T00:10:55.377Z,0.00
2018-09-01T00:11:55.363Z,0.00
2018-09-01T00:12:55.366Z,0.00
2018-09-01T00:13:55.343Z,0.00
2018-09-01T00:14:55.338Z,0.00
2018-09-01T00:15:55.320Z,0.00
2018-09-01T00:16:55.312Z,0.00
2018-09-01T00:17:55.313Z,0.00
2018-09-01T00:18:55.288Z,0.00
2018-09-01T00:19:55.278Z,0.00
2018-09-01T00:20:55.282Z,0.00
2018-09-01T00:21:55.256Z,0.00
2018-09-01T00:22:55.246Z,0.00
2018-09-01T00:23:55.234Z,0.00
2018-09-01T00:24:55.235Z,0.00
2018-09-01T00:25:55.213Z,0.00
2018-09-01T00:26:55.199Z,0.00
2018-09-01T00:27:55.194Z,0.00
2018-09-01T00:28:55.179Z,0.00
2018-09-01T00:29:55.213Z,0.00
2018-09-01T00:30:55.160Z,0.00
2018-09-01T00:31:55.147Z,0.00
2018-09-01T00:32:55.138Z,0.00
2018-09-01T00:33:55.127Z,0.00
2018-09-01T00:34:55.116Z,0.00
2018-09-01T00:35:55.127Z,0.00
2018-09-01T00:36:55.092Z,0.00
2018-09-01T00:37:55.079Z,0.00
2018-09-01T00:38:55.070Z,0.00
2018-09-01T00:39:55.056Z,0.00
2018-09-01T00:40:55.046Z,0.00
2018-09-01T00:41:55.055Z,0.00
2018-09-01T00:42:55.024Z,0.00
2018-09-01T00:43:55.031Z,0.00
2018-09-01T00:44:55.013Z,0.00
2018-09-01T00:45:55.007Z,0.00
2018-09-01T00:46:55.023Z,0.00
2018-09-01T00:47:54.968Z,0.00
2018-09-01T00:48:54.960Z,0.00
2018-09-01T00:49:54.949Z,0.00
2018-09-01T00:50:54.939Z,0.00
2018-09-01T00:51:54.927Z,0.00
2018-09-01T00:52:54.931Z,0.00
2018-09-01T00:53:54.903Z,0.00
2018-09-01T00:54:54.896Z,0.00
2018-09-01T00:55:54.885Z,0.00
2018-09-01T00:56:54.887Z,0.00
2018-09-01T00:57:54.877Z,0.00
2018-09-01T00:58:54.849Z,0.00
2018-09-01T00:59:54.841Z,0.00
2018-09-01T01:00:54.830Z,0.00
2018-09-01T01:01:54.816Z,0.00
2018-09-01T01:02:54.826Z,0.00
2018-09-01T01:03:54.796Z,0.00
2018-09-01T01:04:54.784Z,0.00
2018-09-01T01:05:54.772Z,0.00
2018-09-01T01:06:54.764Z,0.00
2018-09-01T01:07:54.754Z,0.00
2018-09-01T01:08:54.759Z,0.00
2018-09-01T01:09:54.726Z,0.00
2018-09-01T01:10:54.715Z,0.00
2018-09-01T01:11:54.708Z,0.00
2018-09-01T01:12:54.692Z,0.00
2018-09-01T01:13:54.706Z,0.00
2018-09-01T01:14:54.674Z,0.00
2018-09-01T01:15:54.666Z,0.00
2018-09-01T01:16:54.652Z,0.00
2018-09-01T01:17:54.639Z,0.00
2018-09-01T01:18:54.626Z,0.00
2018-09-01T01:19:54.637Z,0.00
2018-09-01T01:20:54.605Z,0.00
2018-09-01T01:21:54.592Z,0.00
2018-09-01T01:22:54.582Z,0.00
2018-09-01T01:23:54.577Z,0.00
2018-09-01T01:24:54.559Z,0.00
2018-09-01T01:25:54.566Z,0.00
2018-09-01T01:26:54.539Z,0.00
2018-09-01T01:27:54.530Z,0.00
2018-09-01T01:28:54.517Z,0.00
2018-09-01T01:29:54.519Z,0.00
2018-09-01T01:30:54.496Z,0.00
2018-09-01T01:31:54.504Z,0.00
2018-09-01T01:32:54.470Z,0.00
2018-09-01T01:33:54.461Z,0.00
2018-09-01T01:34:54.447Z,0.00
2018-09-01T01:35:54.440Z,0.00
2018-09-01T01:36:54.430Z,0.00
2018-09-01T01:37:54.431Z,0.00
2018-09-01T01:38:54.403Z,0.00
2018-09-01T01:39:54.394Z,0.00
2018-09-01T01:40:54.384Z,0.00
2018-09-01T01:41:54.411Z,0.00
2018-09-01T01:42:54.378Z,0.00
2018-09-01T01:43:54.352Z,0.00
2018-09-01T01:44:54.338Z,0.00
2018-09-01T01:45:54.325Z,0.00
2018-09-01T01:46:54.315Z,0.00
2018-09-01T01:47:54.328Z,0.00
2018-09-01T01:48:54.293Z,0.00
2018-09-01T01:49:54.284Z,0.00
2018-09-01T01:50:54.274Z,0.00
2018-09-01T01:51:54.265Z,0.00
2018-09-01T01:52:54.249Z,0.00
2018-09-01T01:53:54.261Z,0.00
2018-09-01T01:54:54.229Z,0.00
2018-09-01T01:55:54.217Z,0.00
2018-09-01T01:56:54.207Z,0.00
2018-09-01T01:57:54.199Z,0.00
2018-09-01T01:58:54.185Z,0.00
2018-09-01T01:59:54.187Z,0.00
2018-09-01T02:00:54.166Z,0.00
2018-09-01T02:01:54.157Z,0.00
2018-09-01T02:02:54.161Z,0.00
2018-09-01T02:03:54.141Z,0.00
2018-09-01T02:04:54.121Z,0.00
2018-09-01T02:05:54.111Z,0.00
2018-09-01T02:06:54.100Z,0.00
2018-09-01T02:07:54.103Z,0.00
2018-09-01T02:08:54.075Z,0.00
2018-09-01T02:09:54.081Z,0.00
2018-09-01T02:10:54.064Z,0.00
2018-09-01T02:11:54.042Z,0.00
2018-09-01T02:12:54.045Z,0.00
2018-09-01T02:13:54.023Z,0.00
2018-09-01T02:14:54.024Z,0.00
2018-09-01T02:15:54.001Z,0.00
2018-09-01T02:16:53.990Z,0.00
2018-09-01T02:17:53.978Z,0.00
2018-09-01T02:18:53.970Z,0.00
2018-09-01T02:19:53.974Z,0.00
2018-09-01T02:20:53.945Z,0.00
2018-09-01T02:21:53.936Z,0.00
2018-09-01T02:22:53.926Z,0.00
2018-09-01T02:23:53.914Z,0.00
2018-09-01T02:24:53.919Z,0.00
2018-09-01T02:25:53.911Z,0.00
2018-09-01T02:26:53.880Z,0.00
2018-09-01T02:27:53.871Z,0.00
2018-09-01T02:28:53.866Z,0.00
2018-09-01T02:29:53.887Z,0.00
2018-09-01T02:30:53.843Z,0.00
2018-09-01T02:31:53.828Z,0.00
2018-09-01T02:32:53.817Z,0.00
2018-09-01T02:33:53.805Z,0.00
2018-09-01T02:34:53.796Z,0.00
2018-09-01T02:35:53.808Z,0.00
2018-09-01T02:36:53.776Z,0.00
2018-09-01T02:37:53.763Z,0.00
2018-09-01T02:38:53.749Z,0.00
2018-09-01T02:39:53.741Z,0.00
2018-09-01T02:40:53.731Z,0.00
2018-09-01T02:41:53.735Z,0.00
2018-09-01T02:42:53.707Z,0.00
2018-09-01T02:43:53.694Z,0.00
2018-09-01T02:44:53.687Z,0.00
2018-09-01T02:45:53.673Z,0.00
2018-09-01T02:46:53.710Z,0.00
2018-09-01T02:47:53.654Z,0.00
2018-09-01T02:48:53.640Z,0.00
2018-09-01T02:49:53.632Z,0.00
2018-09-01T02:50:53.623Z,0.00
2018-09-01T02:51:53.610Z,0.00
2018-09-01T02:52:53.616Z,0.00
2018-09-01T02:53:53.587Z,0.00
2018-09-01T02:54:53.576Z,0.00
2018-09-01T02:55:53.566Z,0.00
2018-09-01T02:56:53.556Z,0.00
2018-09-01T02:57:53.544Z,0.00
2018-09-01T02:58:53.548Z,0.00
2018-09-01T02:59:53.520Z,0.00
2018-09-01T03:00:53.512Z,0.00
2018-09-01T03:01:53.501Z,0.00
2018-09-01T03:02:53.490Z,0.00
2018-09-01T03:03:53.494Z,0.00
2018-09-01T03:04:53.469Z,0.00
2018-09-01T03:05:53.458Z,0.00
2018-09-01T03:06:53.447Z,0.00
2018-09-01T03:07:53.457Z,0.00
2018-09-01T03:08:53.426Z,0.00
2018-09-01T03:09:53.448Z,0.00
2018-09-01T03:10:53.403Z,0.00
2018-09-01T03:11:53.392Z,0.00
2018-09-01T03:12:53.379Z,0.00
2018-09-01T03:13:53.370Z,0.00
2018-09-01T03:14:53.360Z,0.00
2018-09-01T03:15:53.371Z,0.00
2018-09-01T03:16:53.336Z,0.00
2018-09-01T03:17:53.324Z,0.00
2018-09-01T03:18:53.317Z,0.00
2018-09-01T03:19:53.309Z,0.00
2018-09-01T03:20:53.295Z,0.00
2018-09-01T03:21:53.295Z,0.00
2018-09-01T03:22:53.273Z,0.00
2018-09-01T03:23:53.260Z,0.00
2018-09-01T03:24:53.280Z,0.00
2018-09-01T03:25:53.239Z,0.00
2018-09-01T03:26:53.227Z,0.00
2018-09-01T03:27:53.216Z,0.00
2018-09-01T03:28:53.207Z,0.00
2018-09-01T03:29:53.194Z,0.00
2018-09-01T03:30:53.210Z,0.00
2018-09-01T03:31:53.175Z,0.00
2018-09-01T03:32:53.166Z,0.00
2018-09-01T03:33:53.153Z,0.00
2018-09-01T03:34:53.142Z,0.00
2018-09-01T03:35:53.130Z,0.00
2018-09-01T03:36:53.135Z,0.00
2018-09-01T03:37:53.108Z,0.00
2018-09-01T03:38:53.101Z,0.00
2018-09-01T03:39:53.089Z,0.00
2018-09-01T03:40:53.075Z,0.00
2018-09-01T03:41:53.082Z,0.00
2018-09-01T03:42:53.056Z,0.00
2018-09-01T03:43:53.045Z,0.00
2018-09-01T03:44:53.033Z,0.00
2018-09-01T03:45:53.024Z,0.00
2018-09-01T03:46:53.031Z,0.00
2018-09-01T03:47:53.002Z,0.00
2018-09-01T03:48:52.991Z,0.00
2018-09-01T03:49:52.980Z,0.00
2018-09-01T03:50:52.968Z,0.00
2018-09-01T03:51:52.959Z,0.00
2018-09-01T03:52:52.970Z,0.00
2018-09-01T03:53:52.936Z,0.00
2018-09-01T03:54:52.931Z,0.00
2018-09-01T03:55:52.918Z,0.00
2018-09-01T03:56:52.904Z,0.00
2018-09-01T03:57:52.896Z,0.00
2018-09-01T03:58:52.896Z,0.00
2018-09-01T03:59:52.884Z,0.00
2018-09-01T04:00:52.861Z,0.00
2018-09-01T04:01:52.851Z,0.00
2018-09-01T04:02:52.839Z,0.00
2018-09-01T04:03:52.844Z,0.00
2018-09-01T04:04:52.819Z,0.00
2018-09-01T04:05:52.807Z,0.00
2018-09-01T04:06:52.795Z,0.00
2018-09-01T04:07:52.782Z,0.00
2018-09-01T04:08:52.819Z,0.00
2018-09-01T04:09:52.761Z,0.00
2018-09-01T04:10:52.750Z,0.00
2018-09-01T04:11:52.745Z,0.00
2018-09-01T04:12:52.729Z,0.00
2018-09-01T04:13:52.716Z,0.00
2018-09-01T04:14:52.720Z,0.00
2018-09-01T04:15:52.697Z,0.00
2018-09-01T04:16:52.685Z,0.00
2018-09-01T04:17:52.676Z,0.00
2018-09-01T04:18:52.665Z,0.00
2018-09-01T04:19:52.680Z,0.00
2018-09-01T04:20:52.644Z,0.00
2018-09-01T04:21:52.632Z,0.00
2018-09-01T04:22:52.619Z,0.00
2018-09-01T04:23:52.612Z,0.00
2018-09-01T04:24:52.600Z,0.00
2018-09-01T04:25:52.609Z,0.00
2018-09-01T04:26:52.578Z,0.00
2018-09-01T04:27:52.564Z,0.00
2018-09-01T04:28:52.559Z,5.62
2018-09-01T04:29:52.582Z,5.62
2018-09-01T04:30:52.531Z,5.62
2018-09-01T04:31:52.564Z,5.62
2018-09-01T04:32:52.510Z,5.62
2018-09-01T04:33:52.503Z,5.62
2018-09-01T04:34:52.494Z,5.62
2018-09-01T04:35:52.477Z,11.25
2018-09-01T04:36:52.468Z,11.25
2018-09-01T04:37:52.472Z,11.25
2018-09-01T04:38:52.447Z,11.25
2018-09-01T04:39:52.437Z,11.25
2018-09-01T04:40:52.429Z,16.88
2018-09-01T04:41:52.414Z,16.88
2018-09-01T04:42:52.439Z,16.88
2018-09-01T04:43:52.389Z,22.50
2018-09-01T04:44:52.379Z,22.50
2018-09-01T04:45:52.371Z,22.50
2018-09-01T04:46:52.389Z,22.50
2018-09-01T04:47:52.349Z,28.12
2018-09-01T04:48:52.377Z,28.12
2018-09-01T04:49:52.326Z,28.12
2018-09-01T04:50:52.314Z,33.75
2018-09-01T04:51:52.313Z,33.75
2018-09-01T04:52:52.292Z,33.75
2018-09-01T04:53:52.279Z,39.38
2018-09-01T04:54:52.285Z,39.38
2018-09-01T04:55:52.258Z,39.38
2018-09-01T04:56:52.247Z,45.00
2018-09-01T04:57:52.238Z,45.00
2018-09-01T04:58:52.240Z,45.00
2018-09-01T04:59:52.214Z,50.62
2018-09-01T05:00:52.247Z,50.62
2018-09-01T05:01:52.195Z,56.25
2018-09-01T05:02:52.189Z,56.25
2018-09-01T05:03:52.192Z,56.25
2018-09-01T05:04:52.181Z,61.88
2018-09-01T05:05:52.152Z,61.88
2018-09-01T05:06:52.138Z,67.50
2018-09-01T05:07:52.128Z,67.50
2018-09-01T05:08:52.120Z,67.50
2018-09-01T05:09:52.107Z,73.12
2018-09-01T05:10:52.110Z,73.12
2018-09-01T05:11:52.082Z,78.75
2018-09-01T05:12:52.075Z,78.75
2018-09-01T05:13:52.073Z,84.38
2018-09-01T05:14:52.051Z,84.38
2018-09-01T05:15:52.055Z,90.00
2018-09-01T05:16:52.028Z,90.00
2018-09-01T05:17:52.019Z,95.62
2018-09-01T05:18:52.019Z,95.62
2018-09-01T05:19:52.009Z,101.25
2018-09-01T05:20:52.001Z,101.25
2018-09-01T05:21:51.976Z,106.88
2018-09-01T05:22:51.964Z,106.88
2018-09-01T05:23:52.011Z,112.50
2018-09-01T05:24:51.947Z,112.50
2018-09-01T05:25:51.954Z,118.12
2018-09-01T05:26:51.926Z,118.12
2018-09-01T05:27:51.907Z,118.12
2018-09-01T05:28:51.898Z,123.75
2018-09-01T05:29:51.885Z,123.75
2018-09-01T05:30:51.875Z,129.38
2018-09-01T05:31:51.887Z,129.38
2018-09-01T05:32:51.853Z,129.38
2018-09-01T05:33:51.843Z,135.00
2018-09-01T05:34:51.833Z,135.00
2018-09-01T05:35:51.823Z,135.00
2018-09-01T05:36:51.814Z,135.00
2018-09-01T05:37:51.811Z,140.62
2018-09-01T05:38:51.792Z,140.62
2018-09-01T05:39:51.776Z,140.62
2018-09-01T05:40:51.768Z,146.25
2018-09-01T05:41:51.770Z,146.25
2018-09-01T05:42:51.751Z,151.88
2018-09-01T05:43:51.734Z,151.88
2018-09-01T05:44:51.725Z,157.50
2018-09-01T05:45:51.713Z,157.50
2018-09-01T05:46:51.726Z,157.50
2018-09-01T05:47:51.689Z,163.12
2018-09-01T05:48:51.678Z,163.12
2018-09-01T05:49:51.668Z,168.75
2018-09-01T05:50:51.742Z,168.75
2018-09-01T05:51:51.648Z,174.38
2018-09-01T05:52:51.649Z,174.38
2018-09-01T05:53:51.625Z,174.38
2018-09-01T05:54:51.614Z,180.00
2018-09-01T05:55:51.601Z,180.00
2018-09-01T05:56:51.591Z,185.62
2018-09-01T05:57:51.599Z,185.62
2018-09-01T05:58:51.568Z,185.62
2018-09-01T05:59:51.560Z,191.25
2018-09-01T06:00:51.552Z,191.25
2018-09-01T06:01:51.539Z,196.88
2018-09-01T06:02:51.541Z,196.88
2018-09-01T06:03:51.513Z,196.88
2018-09-01T06:04:51.502Z,202.50
2018-09-01T06:05:51.528Z,202.50
2018-09-01T06:06:51.482Z,208.12
2018-09-01T06:07:51.496Z,208.12
2018-09-01T06:08:51.460Z,213.75
2018-09-01T06:09:51.448Z,213.75
2018-09-01T06:10:51.438Z,219.38
2018-09-01T06:11:51.431Z,219.38
2018-09-01T06:12:51.418Z,225.00
2018-09-01T06:13:51.449Z,225.00
2018-09-01T06:14:51.392Z,225.00
2018-09-01T06:15:51.382Z,230.62
2018-09-01T06:16:51.370Z,236.25
2018-09-01T06:17:51.393Z,236.25
2018-09-01T06:18:51.348Z,241.88
2018-09-01T06:19:51.352Z,247.50
2018-09-01T06:20:51.327Z,247.50
2018-09-01T06:21:51.316Z,253.12
2018-09-01T06:22:51.301Z,258.75
2018-09-01T06:23:51.338Z,264.38
2018-09-01T06:24:51.339Z,270.00
2018-09-01T06:25:51.274Z,309.38
2018-09-01T06:26:51.261Z,354.38
2018-09-01T06:27:51.247Z,376.88
2018-09-01T06:28:51.252Z,376.88
2018-09-01T06:29:51.223Z,360.00
2018-09-01T06:30:51.215Z,365.62
2018-09-01T06:31:51.204Z,388.12
2018-09-01T06:32:51.235Z,416.25
2018-09-01T06:33:51.202Z,427.50
2018-09-01T06:34:51.170Z,438.75
2018-09-01T06:35:51.179Z,427.50
2018-09-01T06:36:51.147Z,416.25
2018-09-01T06:37:51.139Z,410.62
2018-09-01T06:38:51.127Z,416.25
2018-09-01T06:39:51.138Z,427.50
2018-09-01T06:40:51.105Z,455.62
2018-09-01T06:41:51.095Z,472.50
2018-09-01T06:42:51.143Z,483.75
2018-09-01T06:43:51.072Z,483.75
2018-09-01T06:44:51.060Z,500.62
2018-09-01T06:45:51.075Z,534.38
2018-09-01T06:46:51.037Z,590.62
2018-09-01T06:47:51.027Z,635.62
2018-09-01T06:48:51.016Z,646.88
2018-09-01T06:49:51.007Z,658.12
2018-09-01T06:50:50.998Z,686.25
2018-09-01T06:51:51.001Z,736.88
2018-09-01T06:52:50.970Z,748.12
2018-09-01T06:53:50.959Z,753.75
2018-09-01T06:54:50.948Z,781.88
2018-09-01T06:55:50.939Z,798.75
2018-09-01T06:56:50.943Z,843.75
2018-09-01T06:57:50.915Z,810.00
2018-09-01T06:58:50.907Z,849.38
2018-09-01T06:59:50.894Z,928.12
2018-09-01T07:00:50.885Z,922.50
2018-09-01T07:01:50.893Z,905.62
2018-09-01T07:02:50.864Z,945.00
2018-09-01T07:03:50.851Z,956.25
2018-09-01T07:04:50.840Z,933.75
2018-09-01T07:05:50.831Z,945.00
2018-09-01T07:06:50.819Z,1001.25
2018-09-01T07:07:50.826Z,1102.50
2018-09-01T07:08:50.899Z,1108.12
2018-09-01T07:09:50.785Z,1091.25
2018-09-01T07:10:50.780Z,1496.25
2018-09-01T07:11:50.767Z,1400.62
2018-09-01T07:12:50.754Z,1372.50
2018-09-01T07:13:50.760Z,1366.88
2018-09-01T07:14:50.735Z,1350.00
2018-09-01T07:15:50.719Z,1378.12
2018-09-01T07:16:50.711Z,1102.50
2018-09-01T07:17:50.699Z,1130.62
2018-09-01T07:18:50.710Z,1282.50
2018-09-01T07:19:50.673Z,1389.38
2018-09-01T07:20:50.662Z,1428.75
2018-09-01T07:21:50.650Z,1440.00
2018-09-01T07:22:50.644Z,1440.00
2018-09-01T07:23:50.631Z,1507.50
2018-09-01T07:24:50.634Z,1479.38
2018-09-01T07:25:50.607Z,1451.25
2018-09-01T07:26:50.597Z,1501.88
2018-09-01T07:27:50.585Z,1541.25
2018-09-01T07:28:50.576Z,1507.50
2018-09-01T07:29:50.580Z,1518.75
2018-09-01T07:30:50.834Z,1513.12
2018-09-01T07:31:50.543Z,1501.88
2018-09-01T07:32:50.533Z,1485.00
2018-09-01T07:33:50.526Z,1490.62
2018-09-01T07:34:50.531Z,1501.88
2018-09-01T07:35:50.500Z,1535.62
2018-09-01T07:36:50.492Z,1569.38
2018-09-01T07:37:50.482Z,1591.88
2018-09-01T07:38:50.467Z,1603.12
2018-09-01T07:39:50.497Z,956.25
2018-09-01T07:40:50.448Z,1085.62
2018-09-01T07:41:50.435Z,1001.25
2018-09-01T07:42:50.428Z,736.88
2018-09-01T07:43:50.414Z,646.88
2018-09-01T07:44:50.406Z,624.38
2018-09-01T07:45:50.403Z,596.25
2018-09-01T07:46:50.391Z,821.25
2018-09-01T07:47:50.372Z,1293.75
2018-09-01T07:48:50.359Z,1766.25
2018-09-01T07:49:50.385Z,1164.38
2018-09-01T07:50:50.370Z,1546.88
2018-09-01T07:51:50.326Z,1406.25
2018-09-01T07:52:50.313Z,849.38
2018-09-01T07:53:50.302Z,1141.88
2018-09-01T07:54:50.292Z,1906.88
2018-09-01T07:55:50.281Z,1231.88
2018-09-01T07:56:50.285Z,2109.38
2018-09-01T07:57:50.260Z,1231.88
2018-09-01T07:58:50.245Z,945.00
2018-09-01T07:59:50.238Z,1018.12
2018-09-01T08:00:50.224Z,1895.62
2018-09-01T08:01:50.236Z,1220.62
2018-09-01T08:02:50.201Z,945.00
2018-09-01T08:03:50.191Z,838.12
2018-09-01T08:04:50.183Z,849.38
2018-09-01T08:05:50.172Z,1057.50
2018-09-01T08:06:50.175Z,900.00
2018-09-01T08:07:50.148Z,973.12
2018-09-01T08:08:50.154Z,939.38
2018-09-01T08:09:50.126Z,961.88
2018-09-01T08:10:50.117Z,1344.38
2018-09-01T08:11:50.103Z,1091.25
2018-09-01T08:12:50.092Z,973.12
2018-09-01T08:13:50.156Z,916.88
2018-09-01T08:14:50.084Z,1906.88
2018-09-01T08:15:50.064Z,928.12
2018-09-01T08:16:50.051Z,956.25
2018-09-01T08:17:50.041Z,1164.38
2018-09-01T08:18:50.031Z,1580.62
2018-09-01T08:19:50.030Z,1276.88
2018-09-01T08:20:50.023Z,1743.75
2018-09-01T08:21:50.009Z,2570.62
2018-09-01T08:22:49.981Z,2520.00
2018-09-01T08:23:49.985Z,2497.50
2018-09-01T08:24:49.963Z,2683.12
2018-09-01T08:25:49.952Z,2694.38
2018-09-01T08:26:49.942Z,2542.50
2018-09-01T08:27:49.932Z,2137.50
2018-09-01T08:28:49.945Z,1974.38
2018-09-01T08:29:49.912Z,888.75
2018-09-01T08:30:49.900Z,883.12
2018-09-01T08:31:49.895Z,2491.88
2018-09-01T08:32:49.881Z,832.50
2018-09-01T08:33:49.883Z,759.38
2018-09-01T08:34:49.872Z,573.75
2018-09-01T08:35:49.846Z,511.88
2018-09-01T08:36:49.836Z,495.00
2018-09-01T08:37:49.826Z,500.62
2018-09-01T08:38:49.821Z,556.88
2018-09-01T08:39:49.817Z,2491.88
2018-09-01T08:40:49.795Z,765.00
2018-09-01T08:41:49.782Z,2576.25
2018-09-01T08:42:49.773Z,2514.38
2018-09-01T08:43:49.760Z,2525.62
2018-09-01T08:44:49.763Z,2593.12
2018-09-01T08:45:49.750Z,2317.50
2018-09-01T08:46:49.725Z,2581.88
2018-09-01T08:47:49.713Z,2716.88
2018-09-01T08:48:49.728Z,804.38
2018-09-01T08:49:49.692Z,2683.12
2018-09-01T08:50:49.681Z,1096.88
2018-09-01T08:51:49.677Z,2880.00
2018-09-01T08:52:49.662Z,1254.38
2018-09-01T08:53:49.648Z,2666.25
2018-09-01T08:54:49.657Z,849.38
2018-09-01T08:55:49.629Z,708.75
2018-09-01T08:56:49.637Z,686.25
2018-09-01T08:57:49.609Z,731.25
2018-09-01T08:58:49.597Z,1299.38
2018-09-01T08:59:49.590Z,1040.62
2018-09-01T09:00:49.577Z,1963.12
2018-09-01T09:01:49.583Z,1051.88
2018-09-01T09:02:49.554Z,1006.88
2018-09-01T09:03:49.547Z,1012.50
2018-09-01T09:04:49.532Z,933.75
2018-09-01T09:05:49.522Z,736.88
2018-09-01T09:06:49.526Z,680.62
2018-09-01T09:07:49.513Z,736.88
2018-09-01T09:08:49.488Z,855.00
2018-09-01T09:09:49.477Z,967.50
2018-09-01T09:10:49.469Z,1057.50
2018-09-01T09:11:49.474Z,3228.75
2018-09-01T09:12:49.443Z,1940.62
2018-09-01T09:13:49.448Z,1771.88
2018-09-01T09:14:49.424Z,1957.50
2018-09-01T09:15:49.414Z,731.25
2018-09-01T09:16:49.401Z,624.38
2018-09-01T09:17:49.391Z,590.62
2018-09-01T09:18:49.397Z,573.75
2018-09-01T09:19:49.369Z,568.12
2018-09-01T09:20:49.357Z,579.38
2018-09-01T09:21:49.345Z,601.88
2018-09-01T09:22:49.340Z,624.38
2018-09-01T09:23:49.345Z,641.25
2018-09-01T09:24:49.320Z,646.88
2018-09-01T09:25:49.301Z,646.88
2018-09-01T09:26:49.292Z,646.88
2018-09-01T09:27:49.287Z,663.75
2018-09-01T09:28:49.269Z,669.38
2018-09-01T09:29:49.272Z,675.00
2018-09-01T09:30:49.248Z,669.38
2018-09-01T09:31:49.238Z,663.75
2018-09-01T09:32:49.224Z,652.50
2018-09-01T09:33:49.219Z,652.50
2018-09-01T09:34:49.220Z,663.75
2018-09-01T09:35:49.193Z,680.62
2018-09-01T09:36:49.180Z,703.12
2018-09-01T09:37:49.174Z,714.38
2018-09-01T09:38:49.161Z,731.25
2018-09-01T09:39:49.167Z,770.62
2018-09-01T09:40:49.152Z,804.38
2018-09-01T09:41:49.174Z,843.75
2018-09-01T09:42:49.115Z,900.00
2018-09-01T09:43:49.105Z,950.62
2018-09-01T09:44:49.136Z,1096.88
2018-09-01T09:45:49.085Z,1631.25
2018-09-01T09:46:49.077Z,2778.75
2018-09-01T09:47:49.061Z,1271.25
2018-09-01T09:48:49.049Z,1670.62
2018-09-01T09:49:49.041Z,1777.50
2018-09-01T09:50:49.042Z,2857.50
2018-09-01T09:51:49.018Z,3346.88
2018-09-01T09:52:49.049Z,3408.75
2018-09-01T09:53:48.997Z,3588.75
2018-09-01T09:54:48.988Z,2891.25
2018-09-01T09:55:48.990Z,1220.62
2018-09-01T09:56:48.965Z,1395.00
2018-09-01T09:57:48.951Z,2891.25
2018-09-01T09:58:48.950Z,3723.75
2018-09-01T09:59:48.936Z,1552.50
2018-09-01T10:00:48.944Z,2250.00
2018-09-01T10:01:48.912Z,2283.75
2018-09-01T10:02:48.909Z,3757.50
2018-09-01T10:03:48.915Z,3768.75
2018-09-01T10:04:48.892Z,2120.62
2018-09-01T10:05:48.884Z,1023.75
2018-09-01T10:06:48.872Z,1063.12
2018-09-01T10:07:48.872Z,3273.75
2018-09-01T10:08:48.835Z,1023.75
2018-09-01T10:09:48.828Z,1451.25
2018-09-01T10:10:48.820Z,1181.25
2018-09-01T10:11:48.825Z,1209.38
2018-09-01T10:12:48.796Z,1282.50
2018-09-01T10:13:48.784Z,1524.38
2018-09-01T10:14:48.811Z,3273.75
2018-09-01T10:15:48.882Z,3909.38
2018-09-01T10:16:48.766Z,3920.62
2018-09-01T10:17:48.747Z,2739.38
2018-09-01T10:18:48.730Z,1440.00
2018-09-01T10:19:48.722Z,1147.50
2018-09-01T10:20:48.714Z,843.75
2018-09-01T10:21:48.712Z,641.25
2018-09-01T10:22:48.687Z,545.62
2018-09-01T10:23:48.677Z,495.00
2018-09-01T10:24:48.667Z,461.25
2018-09-01T10:25:48.658Z,444.38
2018-09-01T10:26:48.704Z,438.75
2018-09-01T10:27:48.637Z,444.38
2018-09-01T10:28:48.621Z,455.62
2018-09-01T10:29:48.610Z,466.88
2018-09-01T10:30:48.600Z,489.38
2018-09-01T10:31:48.607Z,511.88
2018-09-01T10:32:48.592Z,551.25
2018-09-01T10:33:48.583Z,585.00
2018-09-01T10:34:48.571Z,618.75
2018-09-01T10:35:48.546Z,652.50
2018-09-01T10:36:48.537Z,691.88
2018-09-01T10:37:48.545Z,736.88
2018-09-01T10:38:48.514Z,793.12
2018-09-01T10:39:48.502Z,855.00
2018-09-01T10:40:48.494Z,911.25
2018-09-01T10:41:48.480Z,973.12
2018-09-01T10:42:48.485Z,1552.50
2018-09-01T10:43:48.461Z,3853.12
2018-09-01T10:44:48.473Z,3909.38
2018-09-01T10:45:48.437Z,3633.75
2018-09-01T10:46:48.426Z,3825.00
2018-09-01T10:47:48.416Z,3751.88
2018-09-01T10:48:48.406Z,3600.00
2018-09-01T10:49:48.398Z,3611.25
2018-09-01T10:50:48.396Z,3476.25
2018-09-01T10:51:48.397Z,3470.62
2018-09-01T10:52:48.359Z,3465.00
2018-09-01T10:53:48.350Z,3600.00
2018-09-01T10:54:48.340Z,3661.88
2018-09-01T10:55:48.331Z,3622.50
2018-09-01T10:56:48.319Z,3493.12
2018-09-01T10:57:48.320Z,3403.12
2018-09-01T10:58:48.322Z,3600.00
2018-09-01T10:59:48.356Z,3650.62
2018-09-01T11:00:48.288Z,3785.62
2018-09-01T11:01:48.266Z,3718.12
2018-09-01T11:02:48.256Z,3622.50
2018-09-01T11:03:48.246Z,3690.00
2018-09-01T11:04:48.235Z,3785.62
2018-09-01T11:05:48.236Z,3926.25
2018-09-01T11:06:48.214Z,3864.38
2018-09-01T11:07:48.230Z,3768.75
2018-09-01T11:08:48.191Z,3976.88
2018-09-01T11:09:48.180Z,3470.62
2018-09-01T11:10:48.176Z,3802.50
2018-09-01T11:11:48.163Z,1541.25
2018-09-01T11:12:48.148Z,1046.25
2018-09-01T11:13:48.174Z,995.62
2018-09-01T11:14:48.128Z,973.12
2018-09-01T11:15:48.118Z,1338.75
2018-09-01T11:16:48.122Z,1485.00
2018-09-01T11:17:48.103Z,4005.00
2018-09-01T11:18:48.095Z,4061.25
2018-09-01T11:19:48.086Z,3960.00
2018-09-01T11:20:48.101Z,3791.25
2018-09-01T11:21:48.076Z,3875.62
2018-09-01T11:22:48.043Z,2610.00
2018-09-01T11:23:48.031Z,1411.88
2018-09-01T11:24:48.023Z,1130.62
2018-09-01T11:25:48.025Z,1035.00
2018-09-01T11:26:48.034Z,911.25
2018-09-01T11:27:48.073Z,821.25
2018-09-01T11:28:47.980Z,742.50
2018-09-01T11:29:47.969Z,691.88
2018-09-01T11:30:47.958Z,641.25
2018-09-01T11:31:47.949Z,635.62
2018-09-01T11:32:47.955Z,658.12
2018-09-01T11:33:47.925Z,697.50
2018-09-01T11:34:47.918Z,658.12
2018-09-01T11:35:47.923Z,635.62
2018-09-01T11:36:47.973Z,618.75
2018-09-01T11:37:47.902Z,601.88
2018-09-01T11:38:47.876Z,607.50
2018-09-01T11:39:47.863Z,635.62
2018-09-01T11:40:47.868Z,680.62
2018-09-01T11:41:47.858Z,742.50
2018-09-01T11:42:47.915Z,911.25
2018-09-01T11:43:47.821Z,3346.88
2018-09-01T11:44:47.825Z,3459.38
2018-09-01T11:45:47.799Z,3566.25
2018-09-01T11:46:47.803Z,1912.50
2018-09-01T11:47:47.779Z,3656.25
2018-09-01T11:48:47.786Z,3650.62
2018-09-01T11:49:47.757Z,3673.12
2018-09-01T11:50:47.767Z,3746.25
2018-09-01T11:51:47.735Z,3746.25
2018-09-01T11:52:47.725Z,3678.75
2018-09-01T11:53:47.723Z,3498.75
2018-09-01T11:54:47.704Z,3442.50
2018-09-01T11:55:47.694Z,916.88
2018-09-01T11:56:47.694Z,776.25
2018-09-01T11:57:47.672Z,708.75
2018-09-01T11:58:47.707Z,663.75
2018-09-01T11:59:47.650Z,618.75
2018-09-01T12:00:47.640Z,601.88
2018-09-01T12:01:47.626Z,585.00
2018-09-01T12:02:47.618Z,579.38
2018-09-01T12:03:47.635Z,568.12
2018-09-01T12:04:47.596Z,551.25
2018-09-01T12:05:47.583Z,545.62
2018-09-01T12:06:47.571Z,551.25
2018-09-01T12:07:47.562Z,568.12
2018-09-01T12:08:47.598Z,585.00
2018-09-01T12:09:47.548Z,590.62
2018-09-01T12:10:47.530Z,601.88
2018-09-01T12:11:47.526Z,618.75
2018-09-01T12:12:47.509Z,624.38
2018-09-01T12:13:47.531Z,652.50
2018-09-01T12:14:47.488Z,691.88
2018-09-01T12:15:47.546Z,742.50
2018-09-01T12:16:47.465Z,793.12
2018-09-01T12:17:47.458Z,798.75
2018-09-01T12:18:47.445Z,826.88
2018-09-01T12:19:47.451Z,900.00
2018-09-01T12:20:47.425Z,3341.25
2018-09-01T12:21:47.415Z,2643.75
2018-09-01T12:22:47.402Z,3363.75
2018-09-01T12:23:47.390Z,3330.00
2018-09-01T12:24:47.398Z,3166.88
2018-09-01T12:25:47.369Z,3093.75
2018-09-01T12:26:47.374Z,3144.38
2018-09-01T12:27:47.350Z,3150.00
2018-09-01T12:28:47.339Z,3161.25
2018-09-01T12:29:47.344Z,3211.88
2018-09-01T12:30:47.315Z,3268.12
2018-09-01T12:31:47.306Z,3414.38
2018-09-01T12:32:47.294Z,3549.38
2018-09-01T12:33:47.288Z,3504.38
2018-09-01T12:34:47.299Z,3481.88
2018-09-01T12:35:47.264Z,3481.88
2018-09-01T12:36:47.256Z,3127.50
2018-09-01T12:37:47.243Z,3403.12
2018-09-01T12:38:47.235Z,3324.38
2018-09-01T12:39:47.220Z,894.38
2018-09-01T12:40:47.231Z,798.75